createdAt,value
2018-08-22T00:00:13.965Z,18.30
2018-08-22T00:02:42.209Z,18.10
2018-08-22T00:05:10.456Z,18.10
2018-08-22T00:07:38.701Z,18.00
2018-08-22T00:10:06.974Z,17.90
2018-08-22T00:12:35.241Z,17.80
2018-08-22T00:15:03.542Z,17.70
2018-08-22T00:17:32.055Z,17.80
2018-08-22T00:20:00.291Z,17.70
2018-08-22T00:22:28.600Z,17.60
2018-08-22T00:24:56.799Z,17.60
2018-08-22T00:27:25.034Z,17.60
2018-08-22T00:29:53.270Z,17.70
2018-08-22T00:32:21.508Z,17.50
2018-08-22T00:34:49.751Z,17.40
2018-08-22T00:37:18.163Z,17.40
2018-08-22T00:39:46.409Z,17.30
2018-08-22T00:42:14.666Z,17.30
2018-08-22T00:44:42.962Z,17.20
2018-08-22T00:47:11.200Z,17.30
2018-08-22T00:49:39.456Z,17.20
2018-08-22T00:52:07.715Z,17.20
2018-08-22T00:54:35.969Z,17.10
2018-08-22T00:57:04.966Z,17.10
2018-08-22T00:59:33.243Z,17.20
2018-08-22T01:02:01.487Z,17.40
2018-08-22T01:04:29.739Z,17.40
2018-08-22T01:06:57.976Z,17.40
2018-08-22T01:09:26.209Z,17.50
2018-08-22T01:11:54.483Z,17.40
2018-08-22T01:14:22.722Z,17.40
2018-08-22T01:16:50.980Z,17.40
2018-08-22T01:19:19.225Z,17.40
2018-08-22T01:21:47.482Z,17.30
2018-08-22T01:24:15.732Z,17.20
2018-08-22T01:26:43.986Z,17.10
2018-08-22T01:29:12.234Z,17.10
2018-08-22T01:31:40.818Z,17.20
2018-08-22T01:34:09.077Z,17.10
2018-08-22T01:36:37.354Z,17.00
2018-08-22T01:39:07.166Z,16.90
2018-08-22T01:41:35.450Z,16.80
2018-08-22T01:44:03.709Z,17.00
2018-08-22T01:46:31.946Z,17.00
2018-08-22T01:49:00.191Z,16.80
2018-08-22T01:51:28.469Z,16.70
2018-08-22T01:53:56.717Z,16.60
2018-08-22T01:56:30.110Z,16.70
2018-08-22T01:58:58.457Z,16.70
2018-08-22T02:01:26.644Z,16.70
2018-08-22T02:03:54.929Z,16.70
2018-08-22T02:06:23.187Z,16.50
2018-08-22T02:08:51.458Z,16.40
2018-08-22T02:11:19.719Z,16.30
2018-08-22T02:13:47.974Z,16.40
2018-08-22T02:16:16.237Z,16.50
2018-08-22T02:18:44.495Z,16.50
2018-08-22T02:21:12.766Z,16.40
2018-08-22T02:23:41.032Z,16.30
2018-08-22T02:26:09.302Z,16.20
2018-08-22T02:28:37.579Z,16.20
2018-08-22T02:31:05.865Z,16.30
2018-08-22T02:33:34.137Z,16.30
2018-08-22T02:36:02.404Z,16.30
2018-08-22T02:38:30.671Z,16.30
2018-08-22T02:40:58.930Z,16.20
2018-08-22T02:43:27.289Z,16.30
2018-08-22T02:45:55.554Z,16.20
2018-08-22T02:48:23.823Z,16.00
2018-08-22T02:50:52.099Z,16.00
2018-08-22T02:53:20.406Z,15.90
2018-08-22T02:55:48.671Z,15.70
2018-08-22T02:58:17.044Z,15.70
2018-08-22T03:00:45.297Z,15.90
2018-08-22T03:03:13.566Z,16.00
2018-08-22T03:05:41.827Z,16.00
2018-08-22T03:08:10.086Z,16.00
2018-08-22T03:10:38.354Z,16.10
2018-08-22T03:13:06.737Z,16.20
2018-08-22T03:15:34.995Z,16.10
2018-08-22T03:18:03.275Z,16.00
2018-08-22T03:20:31.529Z,16.10
2018-08-22T03:22:59.792Z,16.10
2018-08-22T03:25:28.059Z,16.00
2018-08-22T03:27:56.318Z,15.90
2018-08-22T03:30:24.594Z,15.90
2018-08-22T03:32:52.871Z,16.10
2018-08-22T03:35:21.176Z,16.10
2018-08-22T03:37:49.450Z,16.10
2018-08-22T03:40:17.714Z,16.10
2018-08-22T03:42:45.978Z,16.00
2018-08-22T03:45:14.242Z,16.00
2018-08-22T03:47:42.497Z,15.90
2018-08-22T03:50:10.770Z,15.90
2018-08-22T03:52:39.128Z,15.80
2018-08-22T03:55:07.362Z,15.50
2018-08-22T03:57:35.610Z,15.40
2018-08-22T04:00:03.885Z,15.40
2018-08-22T04:02:32.137Z,15.40
2018-08-22T04:05:00.558Z,15.40
2018-08-22T04:07:28.815Z,15.30
2018-08-22T04:09:57.060Z,15.40
2018-08-22T04:12:25.319Z,15.50
2018-08-22T04:14:53.721Z,15.50
2018-08-22T04:17:26.262Z,15.50
2018-08-22T04:19:54.504Z,15.50
2018-08-22T04:22:22.772Z,15.50
2018-08-22T04:24:51.010Z,15.50
2018-08-22T04:27:19.266Z,15.50
2018-08-22T04:29:47.506Z,15.50
2018-08-22T04:32:15.762Z,15.50
2018-08-22T04:34:44.003Z,15.50
2018-08-22T04:37:12.237Z,15.50
2018-08-22T04:39:40.482Z,15.50
2018-08-22T04:42:08.721Z,15.50
2018-08-22T04:44:36.968Z,15.60
2018-08-22T04:47:05.253Z,15.70
2018-08-22T04:49:34.864Z,15.80
2018-08-22T04:52:03.373Z,15.80
2018-08-22T04:54:31.981Z,15.80
2018-08-22T04:57:00.482Z,15.80
2018-08-22T04:59:28.847Z,15.90
2018-08-22T05:01:57.145Z,15.90
2018-08-22T05:04:25.538Z,15.90
2018-08-22T05:06:54.025Z,16.00
2018-08-22T05:09:22.325Z,16.00
2018-08-22T05:11:50.654Z,16.10
2018-08-22T05:14:19.102Z,16.20
2018-08-22T05:16:47.605Z,16.30
2018-08-22T05:19:15.884Z,16.30
2018-08-22T05:21:44.167Z,16.30
2018-08-22T05:24:12.467Z,16.40
2018-08-22T05:26:40.733Z,16.40
2018-08-22T05:29:09.012Z,16.50
2018-08-22T05:31:37.283Z,16.60
2018-08-22T05:34:05.825Z,16.60
2018-08-22T05:36:34.211Z,16.60
2018-08-22T05:39:02.490Z,16.70
2018-08-22T05:41:30.775Z,16.80
2018-08-22T05:43:59.052Z,16.80
2018-08-22T05:46:27.310Z,16.70
2018-08-22T05:48:55.586Z,16.80
2018-08-22T05:51:23.863Z,16.80
2018-08-22T05:53:52.284Z,16.80
2018-08-22T05:56:20.556Z,17.00
2018-08-22T05:58:48.982Z,17.00
2018-08-22T06:01:17.296Z,17.10
2018-08-22T06:03:45.660Z,17.10
2018-08-22T06:06:15.063Z,17.10
2018-08-22T06:08:43.591Z,17.30
2018-08-22T06:11:11.886Z,17.30
2018-08-22T06:13:40.198Z,17.40
2018-08-22T06:16:08.600Z,17.50
2018-08-22T06:18:36.947Z,17.60
2018-08-22T06:21:05.354Z,17.80
2018-08-22T06:23:33.626Z,18.00
2018-08-22T06:26:02.009Z,18.10
2018-08-22T06:28:31.107Z,18.20
2018-08-22T06:31:00.082Z,18.30
2018-08-22T06:33:28.731Z,18.40
2018-08-22T06:35:57.014Z,18.40
2018-08-22T06:38:25.423Z,18.50
2018-08-22T06:40:53.771Z,18.70
2018-08-22T06:43:22.086Z,18.90
2018-08-22T06:45:50.472Z,19.20
2018-08-22T06:48:18.742Z,19.40
2018-08-22T06:50:47.018Z,19.50
2018-08-22T06:53:15.310Z,19.70
2018-08-22T06:55:50.484Z,20.00
2018-08-22T06:58:19.298Z,20.10
2018-08-22T07:00:47.980Z,20.40
2018-08-22T07:03:17.277Z,20.60
2018-08-22T07:05:46.003Z,20.80
2018-08-22T07:08:15.363Z,21.00
2018-08-22T07:10:44.145Z,21.10
2018-08-22T07:13:13.026Z,21.20
2018-08-22T07:15:41.968Z,21.40
2018-08-22T07:18:11.000Z,21.60
2018-08-22T07:20:40.063Z,21.80
2018-08-22T07:23:08.884Z,22.00
2018-08-22T07:25:38.061Z,22.30
2018-08-22T07:28:07.179Z,22.60
2018-08-22T07:30:36.090Z,22.90
2018-08-22T07:33:05.044Z,24.00
2018-08-22T07:35:34.296Z,26.00
2018-08-22T07:38:03.294Z,28.10
2018-08-22T07:40:32.077Z,29.80
2018-08-22T07:43:02.075Z,30.90
2018-08-22T07:45:30.931Z,32.80
2018-08-22T07:47:59.871Z,34.20
2018-08-22T07:50:29.197Z,34.80
2018-08-22T07:53:03.042Z,35.10
2018-08-22T07:55:35.264Z,37.20
2018-08-22T07:58:04.822Z,37.40
2018-08-22T08:00:33.985Z,36.70
2018-08-22T08:03:03.390Z,37.00
2018-08-22T08:05:32.732Z,37.90
2018-08-22T08:08:02.083Z,38.70
2018-08-22T08:10:33.953Z,38.90
2018-08-22T08:13:03.834Z,40.50
2018-08-22T08:15:33.247Z,40.90
2018-08-22T08:18:02.590Z,40.10
2018-08-22T08:20:32.222Z,40.00
2018-08-22T08:23:01.037Z,40.20
2018-08-22T08:25:30.171Z,39.90
2018-08-22T08:27:59.040Z,39.10
2018-08-22T08:30:27.835Z,39.30
2018-08-22T08:32:56.635Z,40.20
2018-08-22T08:35:25.648Z,42.00
2018-08-22T08:37:54.137Z,41.60
2018-08-22T08:40:22.828Z,42.50
2018-08-22T08:42:51.498Z,42.80
2018-08-22T08:45:20.382Z,43.80
2018-08-22T08:47:49.047Z,42.60
2018-08-22T08:50:18.202Z,43.30
2018-08-22T08:52:47.444Z,43.90
2018-08-22T08:55:17.077Z,43.10
2018-08-22T08:57:45.674Z,43.20
2018-08-22T09:00:14.154Z,43.00
2018-08-22T09:02:42.765Z,43.70
2018-08-22T09:05:11.368Z,43.90
2018-08-22T09:07:39.814Z,45.10
2018-08-22T09:10:08.432Z,44.30
2018-08-22T09:12:37.566Z,43.00
2018-08-22T09:15:07.354Z,43.10
2018-08-22T09:17:36.391Z,42.10
2018-08-22T09:20:07.423Z,43.50
2018-08-22T09:22:36.639Z,42.80
2018-08-22T09:25:05.166Z,43.50
2018-08-22T09:27:34.002Z,43.50
2018-08-22T09:30:02.871Z,42.10
2018-08-22T09:32:31.240Z,42.70
2018-08-22T09:35:00.297Z,43.80
2018-08-22T09:37:29.414Z,43.40
2018-08-22T09:39:58.074Z,43.10
2018-08-22T09:42:27.202Z,44.40
2018-08-22T09:44:58.148Z,46.10
2018-08-22T09:47:26.820Z,45.10
2018-08-22T09:49:55.611Z,45.00
2018-08-22T09:52:24.741Z,44.90
2018-08-22T09:55:07.206Z,42.50
2018-08-22T09:57:35.747Z,43.80
2018-08-22T10:00:07.960Z,43.30
2018-08-22T10:02:37.288Z,44.80
2018-08-22T10:05:05.770Z,45.80
2018-08-22T10:07:35.406Z,45.60
2018-08-22T10:10:04.091Z,46.70
2018-08-22T10:12:32.546Z,47.00
2018-08-22T10:15:01.404Z,47.80
2018-08-22T10:17:30.314Z,46.30
2018-08-22T10:19:58.873Z,47.50
2018-08-22T10:22:27.513Z,45.90
2018-08-22T10:24:56.039Z,45.80
2018-08-22T10:27:24.700Z,45.00
2018-08-22T10:29:53.445Z,45.00
2018-08-22T10:32:21.822Z,45.70
2018-08-22T10:34:50.486Z,46.40
2018-08-22T10:37:19.404Z,46.60
2018-08-22T10:39:48.611Z,47.40
2018-08-22T10:42:17.523Z,47.20
2018-08-22T10:44:46.431Z,46.00
2018-08-22T10:47:15.238Z,46.50
2018-08-22T10:49:44.184Z,45.20
2018-08-22T10:52:12.836Z,45.00
2018-08-22T10:54:41.607Z,45.10
2018-08-22T10:57:10.132Z,45.90
2018-08-22T10:59:38.966Z,45.80
2018-08-22T11:02:07.740Z,45.60
2018-08-22T11:04:36.333Z,45.90
2018-08-22T11:07:05.060Z,44.10
2018-08-22T11:09:33.573Z,43.70
2018-08-22T11:12:02.219Z,43.00
2018-08-22T11:14:30.799Z,42.70
2018-08-22T11:16:59.598Z,42.20
2018-08-22T11:19:28.522Z,41.40
2018-08-22T11:22:08.484Z,40.70
2018-08-22T11:24:48.464Z,41.10
2018-08-22T11:27:28.246Z,41.20
2018-08-22T11:30:07.988Z,41.70
2018-08-22T11:32:47.797Z,41.00
2018-08-22T11:35:15.063Z,39.90
2018-08-22T11:37:43.798Z,39.00
2018-08-22T11:40:13.097Z,39.40
2018-08-22T11:42:41.495Z,40.20
2018-08-22T11:45:10.785Z,40.80
2018-08-22T11:47:39.127Z,41.00
2018-08-22T11:50:10.082Z,40.70
2018-08-22T11:52:38.639Z,40.20
2018-08-22T11:55:07.145Z,40.60
2018-08-22T11:57:35.717Z,39.30
2018-08-22T12:00:04.846Z,38.00
2018-08-22T12:02:33.283Z,37.90
2018-08-22T12:05:02.216Z,37.70
2018-08-22T12:07:30.584Z,38.20
2018-08-22T12:09:59.119Z,36.60
2018-08-22T12:12:27.422Z,36.40
2018-08-22T12:14:55.888Z,35.80
2018-08-22T12:17:24.332Z,35.20
2018-08-22T12:19:52.785Z,35.20
2018-08-22T12:22:21.149Z,35.30
2018-08-22T12:24:49.668Z,36.10
2018-08-22T12:27:19.076Z,35.70
2018-08-22T12:29:47.425Z,35.40
2018-08-22T12:32:15.850Z,35.20
2018-08-22T12:34:44.476Z,35.40
2018-08-22T12:37:12.972Z,36.00
2018-08-22T12:39:41.415Z,36.70
2018-08-22T12:42:10.004Z,37.00
2018-08-22T12:44:38.530Z,37.00
2018-08-22T12:47:06.758Z,36.30
2018-08-22T12:49:35.249Z,35.50
2018-08-22T12:52:03.613Z,34.50
2018-08-22T12:54:32.062Z,34.00
2018-08-22T12:57:00.467Z,33.40
2018-08-22T12:59:28.852Z,33.70
2018-08-22T13:01:57.372Z,34.00
2018-08-22T13:04:25.787Z,34.20
2018-08-22T13:06:54.186Z,34.70
2018-08-22T13:09:22.563Z,34.80
2018-08-22T13:11:50.823Z,35.00
2018-08-22T13:14:19.121Z,34.90
2018-08-22T13:16:47.370Z,35.10
2018-08-22T13:19:15.714Z,35.50
2018-08-22T13:21:43.968Z,35.70
2018-08-22T13:24:12.294Z,35.40
2018-08-22T13:26:40.653Z,35.40
2018-08-22T13:29:08.923Z,35.70
2018-08-22T13:31:37.229Z,35.50
2018-08-22T13:34:05.909Z,35.20
2018-08-22T13:36:34.151Z,34.90
2018-08-22T13:39:02.690Z,34.90
2018-08-22T13:41:30.950Z,34.60
2018-08-22T13:43:59.204Z,34.80
2018-08-22T13:46:27.463Z,34.80
2018-08-22T13:48:55.718Z,34.60
2018-08-22T13:51:23.982Z,34.30
2018-08-22T13:53:52.360Z,34.40
2018-08-22T13:56:20.658Z,34.30
2018-08-22T13:58:48.892Z,33.90
2018-08-22T14:01:17.258Z,33.60
2018-08-22T14:03:45.878Z,33.30
2018-08-22T14:06:14.155Z,33.20
2018-08-22T14:08:42.511Z,33.10
2018-08-22T14:11:10.758Z,33.40
2018-08-22T14:13:39.058Z,33.80
2018-08-22T14:16:07.386Z,33.80
2018-08-22T14:18:35.579Z,34.10
2018-08-22T14:21:03.946Z,34.40
2018-08-22T14:23:32.210Z,34.60
2018-08-22T14:26:00.510Z,34.90
2018-08-22T14:28:28.754Z,34.50
2018-08-22T14:30:57.260Z,34.70
2018-08-22T14:33:25.537Z,35.10
2018-08-22T14:35:53.791Z,35.10
2018-08-22T14:38:22.057Z,35.30
2018-08-22T14:40:50.342Z,34.80
2018-08-22T14:43:18.662Z,34.50
2018-08-22T14:45:46.940Z,34.50
2018-08-22T14:48:15.214Z,34.50
2018-08-22T14:50:43.465Z,34.00
2018-08-22T14:53:12.022Z,34.00
2018-08-22T14:55:40.574Z,33.60
2018-08-22T14:58:08.964Z,33.30
2018-08-22T15:00:37.216Z,33.20
2018-08-22T15:03:05.909Z,33.20
2018-08-22T15:05:33.919Z,33.10
2018-08-22T15:08:02.207Z,33.10
2018-08-22T15:10:30.489Z,33.30
2018-08-22T15:12:58.803Z,33.70
2018-08-22T15:15:27.031Z,33.80
2018-08-22T15:17:55.326Z,33.80
2018-08-22T15:20:23.571Z,33.60
2018-08-22T15:22:51.837Z,33.50
2018-08-22T15:25:20.101Z,33.30
2018-08-22T15:27:48.954Z,33.30
2018-08-22T15:30:17.210Z,33.30
2018-08-22T15:32:45.770Z,33.10
2018-08-22T15:35:14.041Z,32.90
2018-08-22T15:37:42.322Z,32.90
2018-08-22T15:40:10.591Z,32.80
2018-08-22T15:42:38.856Z,32.70
2018-08-22T15:45:07.215Z,32.80
2018-08-22T15:47:35.528Z,32.80
2018-08-22T15:50:04.030Z,32.80
2018-08-22T15:52:32.315Z,32.70
2018-08-22T15:55:13.186Z,32.50
2018-08-22T15:57:54.180Z,32.60
2018-08-22T16:00:33.418Z,32.60
2018-08-22T16:03:02.826Z,32.60
2018-08-22T16:05:31.315Z,32.60
2018-08-22T16:08:00.120Z,32.60
2018-08-22T16:10:28.811Z,32.70
2018-08-22T16:12:57.193Z,32.50
2018-08-22T16:15:26.413Z,32.60
2018-08-22T16:17:55.834Z,32.40
2018-08-22T16:20:25.345Z,32.40
2018-08-22T16:22:53.938Z,32.40
2018-08-22T16:25:28.834Z,32.50
2018-08-22T16:27:57.214Z,32.40
2018-08-22T16:30:25.599Z,32.20
2018-08-22T16:32:55.515Z,32.20
2018-08-22T16:35:24.320Z,32.10
2018-08-22T16:38:02.209Z,32.00
2018-08-22T16:40:35.571Z,31.90
2018-08-22T16:43:05.235Z,31.80
2018-08-22T16:45:41.619Z,31.50
2018-08-22T16:48:11.169Z,31.50
2018-08-22T16:50:41.382Z,31.30
2018-08-22T16:53:11.297Z,31.30
2018-08-22T16:55:40.762Z,31.20
2018-08-22T16:58:09.864Z,31.10
2018-08-22T17:00:45.111Z,31.10
2018-08-22T17:03:14.262Z,30.90
2018-08-22T17:05:43.337Z,30.90
2018-08-22T17:08:12.709Z,30.90
2018-08-22T17:10:51.859Z,30.80
2018-08-22T17:13:28.712Z,30.70
2018-08-22T17:15:59.200Z,30.60
2018-08-22T17:18:28.192Z,30.50
2018-08-22T17:20:57.420Z,30.50
2018-08-22T17:23:25.718Z,30.30
2018-08-22T17:25:54.282Z,30.10
2018-08-22T17:28:27.932Z,30.00
2018-08-22T17:30:56.486Z,29.80
2018-08-22T17:33:29.530Z,29.70
2018-08-22T17:35:58.190Z,29.60
2018-08-22T17:38:26.710Z,29.50
2018-08-22T17:40:54.980Z,29.40
2018-08-22T17:43:23.262Z,29.30
2018-08-22T17:45:51.527Z,29.20
2018-08-22T17:48:21.203Z,29.10
2018-08-22T17:50:49.861Z,29.00
2018-08-22T17:53:18.144Z,28.80
2018-08-22T17:55:46.483Z,28.60
2018-08-22T17:58:14.754Z,28.50
2018-08-22T18:00:43.051Z,28.30
2018-08-22T18:03:11.332Z,28.20
2018-08-22T18:05:39.610Z,28.10
2018-08-22T18:08:08.932Z,28.00
2018-08-22T18:10:39.241Z,27.80
2018-08-22T18:13:13.002Z,27.70
2018-08-22T18:15:41.353Z,27.50
2018-08-22T18:18:09.611Z,27.40
2018-08-22T18:20:39.364Z,27.20
2018-08-22T18:23:07.862Z,27.10
2018-08-22T18:25:39.704Z,27.00
2018-08-22T18:28:08.016Z,26.80
2018-08-22T18:30:36.305Z,26.60
2018-08-22T18:33:04.571Z,26.50
2018-08-22T18:35:32.831Z,26.30
2018-08-22T18:38:01.116Z,26.00
2018-08-22T18:40:30.400Z,25.80
2018-08-22T18:43:01.033Z,25.70
2018-08-22T18:45:29.614Z,25.40
2018-08-22T18:47:58.328Z,25.40
2018-08-22T18:50:26.743Z,25.20
2018-08-22T18:52:57.454Z,25.00
2018-08-22T18:55:27.371Z,24.90
2018-08-22T18:57:56.793Z,24.80
2018-08-22T19:00:25.470Z,24.60
2018-08-22T19:02:55.123Z,24.40
2018-08-22T19:05:32.437Z,24.20
2018-08-22T19:08:07.973Z,24.10
2018-08-22T19:10:37.487Z,24.00
2018-08-22T19:13:22.134Z,23.90
2018-08-22T19:15:54.427Z,23.70
2018-08-22T19:18:24.070Z,23.60
2018-08-22T19:20:54.689Z,23.50
2018-08-22T19:23:23.229Z,23.40
2018-08-22T19:25:52.373Z,23.20
2018-08-22T19:28:20.611Z,23.10
2018-08-22T19:30:49.013Z,23.10
2018-08-22T19:33:19.798Z,23.00
2018-08-22T19:35:48.368Z,22.90
2018-08-22T19:38:18.353Z,22.80
2018-08-22T19:40:46.956Z,22.70
2018-08-22T19:43:15.333Z,22.60
2018-08-22T19:45:43.597Z,22.50
2018-08-22T19:48:18.071Z,22.40
2018-08-22T19:50:46.366Z,22.30
2018-08-22T19:53:14.641Z,22.20
2018-08-22T19:55:42.927Z,22.10
2018-08-22T19:58:11.235Z,22.00
2018-08-22T20:00:39.674Z,22.00
2018-08-22T20:03:07.946Z,21.90
2018-08-22T20:05:50.404Z,21.80
2018-08-22T20:08:21.233Z,21.80
2018-08-22T20:10:49.563Z,21.70
2018-08-22T20:13:20.190Z,21.70
2018-08-22T20:15:49.000Z,21.60
2018-08-22T20:18:18.435Z,21.50
2018-08-22T20:20:46.911Z,21.40
2018-08-22T20:23:15.221Z,21.30
2018-08-22T20:25:43.474Z,21.30
2018-08-22T20:28:11.790Z,21.30
2018-08-22T20:30:40.080Z,21.30
2018-08-22T20:33:09.588Z,21.30
2018-08-22T20:35:40.759Z,21.20
2018-08-22T20:38:10.427Z,21.20
2018-08-22T20:40:39.239Z,21.20
2018-08-22T20:43:14.212Z,21.20
2018-08-22T20:45:44.176Z,21.10
2018-08-22T20:48:13.546Z,21.10
2018-08-22T20:50:43.039Z,21.20
2018-08-22T20:53:14.416Z,21.30
2018-08-22T20:55:42.817Z,21.40
2018-08-22T20:58:30.784Z,21.30
2018-08-22T21:00:59.968Z,21.30
2018-08-22T21:03:28.358Z,21.40
2018-08-22T21:05:57.354Z,21.40
2018-08-22T21:08:25.676Z,21.50
2018-08-22T21:10:54.266Z,21.60
2018-08-22T21:13:30.070Z,21.60
2018-08-22T21:15:59.030Z,21.40
2018-08-22T21:18:27.626Z,21.20
2018-08-22T21:20:56.010Z,21.00
2018-08-22T21:23:24.704Z,21.00
2018-08-22T21:25:53.072Z,21.00
2018-08-22T21:28:28.527Z,21.10
2018-08-22T21:31:00.926Z,21.10
2018-08-22T21:33:30.368Z,21.10
2018-08-22T21:35:58.623Z,21.00
2018-08-22T21:38:26.891Z,21.00
2018-08-22T21:40:55.187Z,21.00
2018-08-22T21:43:23.481Z,20.90
2018-08-22T21:45:52.010Z,20.90
2018-08-22T21:48:23.010Z,20.80
2018-08-22T21:50:51.266Z,20.90
2018-08-22T21:53:20.526Z,20.90
2018-08-22T21:55:49.455Z,20.80
2018-08-22T21:58:17.729Z,20.70
2018-08-22T22:00:46.020Z,20.50
2018-08-22T22:03:14.860Z,20.40
2018-08-22T22:05:47.323Z,20.40
2018-08-22T22:08:15.578Z,20.30
2018-08-22T22:10:43.834Z,20.30
2018-08-22T22:13:12.158Z,20.30
2018-08-22T22:15:46.631Z,20.30
2018-08-22T22:18:14.903Z,20.30
2018-08-22T22:20:46.666Z,20.30
2018-08-22T22:23:14.926Z,20.20
2018-08-22T22:25:43.632Z,20.20
2018-08-22T22:28:11.894Z,20.20
2018-08-22T22:30:40.158Z,20.20
2018-08-22T22:33:08.415Z,20.30
2018-08-22T22:35:36.689Z,20.20
2018-08-22T22:38:07.858Z,20.20
2018-08-22T22:40:36.466Z,20.10
2018-08-22T22:43:07.633Z,20.00
2018-08-22T22:45:36.225Z,19.90
2018-08-22T22:48:04.488Z,19.90
2018-08-22T22:50:32.770Z,19.90
2018-08-22T22:53:01.048Z,19.90
2018-08-22T22:55:29.335Z,19.80
2018-08-22T22:57:57.606Z,19.80
2018-08-22T23:00:25.916Z,19.70
2018-08-22T23:02:59.536Z,19.70
2018-08-22T23:05:31.528Z,19.70
2018-08-22T23:08:01.439Z,19.60
2018-08-22T23:10:29.719Z,19.40
2018-08-22T23:12:57.979Z,19.30
2018-08-22T23:15:27.461Z,19.40
2018-08-22T23:17:57.170Z,19.30
2018-08-22T23:20:36.021Z,19.20
2018-08-22T23:23:08.751Z,19.10
2018-08-22T23:25:37.016Z,19.00
2018-08-22T23:28:05.296Z,18.90
2018-08-22T23:30:36.638Z,18.80
2018-08-22T23:33:05.649Z,18.70
2018-08-22T23:35:34.950Z,18.70
2018-08-22T23:38:09.241Z,18.60
2018-08-22T23:40:37.990Z,18.50
2018-08-22T23:43:06.273Z,18.30
2018-08-22T23:45:36.373Z,18.20
2018-08-22T23:48:05.543Z,18.20
2018-08-22T23:50:46.210Z,18.10
2018-08-22T23:53:14.487Z,18.00
2018-08-22T23:55:42.762Z,17.80
2018-08-22T23:58:11.038Z,17.70
